sensor_id;sensor_type;location;lat;lon;timestamp;P1;durP1;ratioP1;P2;durP2;ratioP2
15398;SDS011;7797;51.428;6.756;2023-02-04T00:00:14;14.57;;;3.87;;
15398;SDS011;7797;51.428;6.756;2023-02-04T00:02:45;12.77;;;3.70;;
15398;SDS011;7797;51.428;6.756;2023-02-04T00:05:12;12.60;;;3.90;;
15398;SDS011;7797;51.428;6.756;2023-02-04T00:07:39;17.53;;;3.47;;
15398;SDS011;7797;51.428;6.756;2023-02-04T00:10:07;17.77;;;3.53;;
15398;SDS011;7797;51.428;6.756;2023-02-04T00:12:35;15.17;;;3.30;;
15398;SDS011;7797;51.428;6.756;2023-02-04T00:15:02;15.50;;;4.10;;
15398;SDS011;7797;51.428;6.756;2023-02-04T00:17:29;10.13;;;3.00;;
15398;SDS011;7797;51.428;6.756;2023-02-04T00:19:55;13.07;;;3.67;;
15398;SDS011;7797;51.428;6.756;2023-02-04T00:22:22;14.03;;;3.60;;
15398;SDS011;7797;51.428;6.756;2023-02-04T00:24:49;18.80;;;4.23;;
15398;SDS011;7797;51.428;6.756;2023-02-04T00:27:16;15.27;;;3.50;;
15398;SDS011;7797;51.428;6.756;2023-02-04T00:29:43;17.97;;;3.73;;
15398;SDS011;7797;51.428;6.756;2023-02-04T00:32:09;17.43;;;4.13;;
15398;SDS011;7797;51.428;6.756;2023-02-04T00:34:36;16.83;;;4.00;;
15398;SDS011;7797;51.428;6.756;2023-02-04T00:37:03;16.77;;;3.57;;
15398;SDS011;7797;51.428;6.756;2023-02-04T00:39:30;11.57;;;4.03;;
15398;SDS011;7797;51.428;6.756;2023-02-04T00:41:57;18.27;;;3.57;;
15398;SDS011;7797;51.428;6.756;2023-02-04T00:44:23;13.50;;;3.20;;
15398;SDS011;7797;51.428;6.756;2023-02-04T00:46:50;11.83;;;3.47;;
15398;SDS011;7797;51.428;6.756;2023-02-04T00:49:17;12.33;;;4.00;;
15398;SDS011;7797;51.428;6.756;2023-02-04T00:51:43;13.37;;;3.43;;
15398;SDS011;7797;51.428;6.756;2023-02-04T00:54:12;17.67;;;3.50;;
15398;SDS011;7797;51.428;6.756;2023-02-04T00:56:41;16.33;;;3.47;;
15398;SDS011;7797;51.428;6.756;2023-02-04T00:59:09;12.63;;;3.00;;
15398;SDS011;7797;51.428;6.756;2023-02-04T01:01:36;14.00;;;3.70;;
15398;SDS011;7797;51.428;6.756;2023-02-04T01:04:03;16.13;;;3.50;;
15398;SDS011;7797;51.428;6.756;2023-02-04T01:06:30;14.33;;;2.83;;
15398;SDS011;7797;51.428;6.756;2023-02-04T01:08:57;12.90;;;3.20;;
15398;SDS011;7797;51.428;6.756;2023-02-04T01:11:24;14.23;;;3.90;;
15398;SDS011;7797;51.428;6.756;2023-02-04T01:13:51;19.03;;;3.53;;
15398;SDS011;7797;51.428;6.756;2023-02-04T01:16:17;18.90;;;3.70;;
15398;SDS011;7797;51.428;6.756;2023-02-04T01:18:44;13.10;;;3.50;;
15398;SDS011;7797;51.428;6.756;2023-02-04T01:21:11;18.00;;;4.17;;
15398;SDS011;7797;51.428;6.756;2023-02-04T01:23:38;15.03;;;3.77;;
15398;SDS011;7797;51.428;6.756;2023-02-04T01:26:05;15.83;;;3.23;;
15398;SDS011;7797;51.428;6.756;2023-02-04T01:28:32;16.70;;;3.43;;
15398;SDS011;7797;51.428;6.756;2023-02-04T01:30:58;14.90;;;3.97;;
15398;SDS011;7797;51.428;6.756;2023-02-04T01:33:26;11.33;;;3.40;;
15398;SDS011;7797;51.428;6.756;2023-02-04T01:35:53;13.67;;;3.43;;
15398;SDS011;7797;51.428;6.756;2023-02-04T01:38:19;14.93;;;3.80;;
15398;SDS011;7797;51.428;6.756;2023-02-04T01:40:46;16.90;;;3.57;;
15398;SDS011;7797;51.428;6.756;2023-02-04T01:43:13;18.27;;;4.23;;
15398;SDS011;7797;51.428;6.756;2023-02-04T01:45:39;16.80;;;4.23;;
15398;SDS011;7797;51.428;6.756;2023-02-04T01:48:06;17.43;;;3.60;;
15398;SDS011;7797;51.428;6.756;2023-02-04T01:50:33;14.83;;;3.60;;
15398;SDS011;7797;51.428;6.756;2023-02-04T01:53:00;13.40;;;3.53;;
15398;SDS011;7797;51.428;6.756;2023-02-04T01:55:28;16.20;;;4.20;;
15398;SDS011;7797;51.428;6.756;2023-02-04T01:57:57;13.53;;;3.97;;
15398;SDS011;7797;51.428;6.756;2023-02-04T02:00:25;19.00;;;4.70;;
15398;SDS011;7797;51.428;6.756;2023-02-04T02:02:57;16.77;;;3.80;;
15398;SDS011;7797;51.428;6.756;2023-02-04T02:05:32;19.67;;;4.93;;
15398;SDS011;7797;51.428;6.756;2023-02-04T02:08:04;13.27;;;3.87;;
15398;SDS011;7797;51.428;6.756;2023-02-04T02:10:31;14.90;;;3.67;;
15398;SDS011;7797;51.428;6.756;2023-02-04T02:12:59;13.77;;;3.90;;
15398;SDS011;7797;51.428;6.756;2023-02-04T02:15:26;12.30;;;3.53;;
15398;SDS011;7797;51.428;6.756;2023-02-04T02:17:53;14.87;;;3.30;;
15398;SDS011;7797;51.428;6.756;2023-02-04T02:20:20;12.17;;;3.43;;
15398;SDS011;7797;51.428;6.756;2023-02-04T02:22:57;13.37;;;4.33;;
15398;SDS011;7797;51.428;6.756;2023-02-04T02:25:28;16.40;;;4.17;;
15398;SDS011;7797;51.428;6.756;2023-02-04T02:27:55;15.50;;;3.40;;
15398;SDS011;7797;51.428;6.756;2023-02-04T02:30:22;11.80;;;3.60;;
15398;SDS011;7797;51.428;6.756;2023-02-04T02:32:49;15.63;;;3.63;;
15398;SDS011;7797;51.428;6.756;2023-02-04T02:35:17;12.50;;;3.30;;
15398;SDS011;7797;51.428;6.756;2023-02-04T02:37:44;16.80;;;3.60;;
15398;SDS011;7797;51.428;6.756;2023-02-04T02:40:11;16.43;;;3.30;;
15398;SDS011;7797;51.428;6.756;2023-02-04T02:42:38;17.40;;;3.73;;
15398;SDS011;7797;51.428;6.756;2023-02-04T02:45:06;12.37;;;3.30;;
15398;SDS011;7797;51.428;6.756;2023-02-04T02:47:36;11.70;;;3.60;;
15398;SDS011;7797;51.428;6.756;2023-02-04T02:50:03;17.53;;;3.73;;
15398;SDS011;7797;51.428;6.756;2023-02-04T02:52:30;14.20;;;3.93;;
15398;SDS011;7797;51.428;6.756;2023-02-04T02:54:57;13.30;;;3.77;;
15398;SDS011;7797;51.428;6.756;2023-02-04T02:57:23;17.00;;;3.47;;
15398;SDS011;7797;51.428;6.756;2023-02-04T02:59:50;15.80;;;4.03;;
15398;SDS011;7797;51.428;6.756;2023-02-04T03:02:18;12.87;;;3.70;;
15398;SDS011;7797;51.428;6.756;2023-02-04T03:04:53;9.80;;;3.10;;
15398;SDS011;7797;51.428;6.756;2023-02-04T03:07:21;14.00;;;3.50;;
15398;SDS011;7797;51.428;6.756;2023-02-04T03:09:48;18.70;;;4.00;;
15398;SDS011;7797;51.428;6.756;2023-02-04T03:12:17;13.00;;;3.47;;
15398;SDS011;7797;51.428;6.756;2023-02-04T03:14:44;16.03;;;3.40;;
15398;SDS011;7797;51.428;6.756;2023-02-04T03:17:11;18.53;;;3.70;;
15398;SDS011;7797;51.428;6.756;2023-02-04T03:19:38;14.73;;;3.60;;
15398;SDS011;7797;51.428;6.756;2023-02-04T03:22:05;17.90;;;3.40;;
15398;SDS011;7797;51.428;6.756;2023-02-04T03:24:32;16.73;;;3.73;;
15398;SDS011;7797;51.428;6.756;2023-02-04T03:27:00;13.57;;;3.37;;
15398;SDS011;7797;51.428;6.756;2023-02-04T03:29:27;11.97;;;3.70;;
15398;SDS011;7797;51.428;6.756;2023-02-04T03:31:55;13.27;;;3.53;;
15398;SDS011;7797;51.428;6.756;2023-02-04T03:34:22;12.10;;;3.40;;
15398;SDS011;7797;51.428;6.756;2023-02-04T03:36:48;13.23;;;3.73;;
15398;SDS011;7797;51.428;6.756;2023-02-04T03:39:15;14.97;;;3.83;;
15398;SDS011;7797;51.428;6.756;2023-02-04T03:41:42;12.53;;;3.17;;
15398;SDS011;7797;51.428;6.756;2023-02-04T03:44:09;16.60;;;3.97;;
15398;SDS011;7797;51.428;6.756;2023-02-04T03:46:35;13.93;;;3.40;;
15398;SDS011;7797;51.428;6.756;2023-02-04T03:49:02;18.17;;;3.50;;
15398;SDS011;7797;51.428;6.756;2023-02-04T03:51:29;16.03;;;3.47;;
15398;SDS011;7797;51.428;6.756;2023-02-04T03:53:55;11.13;;;3.07;;
15398;SDS011;7797;51.428;6.756;2023-02-04T03:56:22;12.63;;;3.10;;
15398;SDS011;7797;51.428;6.756;2023-02-04T03:58:48;14.03;;;3.70;;
15398;SDS011;7797;51.428;6.756;2023-02-04T04:01:15;22.33;;;3.80;;
15398;SDS011;7797;51.428;6.756;2023-02-04T04:03:43;15.30;;;3.33;;
15398;SDS011;7797;51.428;6.756;2023-02-04T04:06:10;13.30;;;3.50;;
15398;SDS011;7797;51.428;6.756;2023-02-04T04:08:37;12.03;;;3.80;;
15398;SDS011;7797;51.428;6.756;2023-02-04T04:11:04;14.20;;;3.60;;
15398;SDS011;7797;51.428;6.756;2023-02-04T04:13:30;11.20;;;3.63;;
15398;SDS011;7797;51.428;6.756;2023-02-04T04:15:57;21.23;;;4.00;;
15398;SDS011;7797;51.428;6.756;2023-02-04T04:18:24;14.87;;;4.00;;
15398;SDS011;7797;51.428;6.756;2023-02-04T04:20:51;18.33;;;4.00;;
15398;SDS011;7797;51.428;6.756;2023-02-04T04:23:17;12.40;;;3.70;;
15398;SDS011;7797;51.428;6.756;2023-02-04T04:25:44;16.57;;;3.97;;
15398;SDS011;7797;51.428;6.756;2023-02-04T04:28:11;16.50;;;4.17;;
15398;SDS011;7797;51.428;6.756;2023-02-04T04:30:37;13.83;;;4.27;;
15398;SDS011;7797;51.428;6.756;2023-02-04T04:33:04;14.23;;;3.53;;
15398;SDS011;7797;51.428;6.756;2023-02-04T04:35:31;15.93;;;4.07;;
15398;SDS011;7797;51.428;6.756;2023-02-04T04:37:58;17.50;;;3.97;;
15398;SDS011;7797;51.428;6.756;2023-02-04T04:40:24;20.77;;;4.30;;
15398;SDS011;7797;51.428;6.756;2023-02-04T04:42:51;16.10;;;4.73;;
15398;SDS011;7797;51.428;6.756;2023-02-04T04:45:18;20.07;;;4.60;;
15398;SDS011;7797;51.428;6.756;2023-02-04T04:47:45;18.90;;;4.20;;
15398;SDS011;7797;51.428;6.756;2023-02-04T04:50:12;11.80;;;4.37;;
15398;SDS011;7797;51.428;6.756;2023-02-04T04:52:38;12.47;;;3.30;;
15398;SDS011;7797;51.428;6.756;2023-02-04T04:55:05;18.03;;;4.00;;
15398;SDS011;7797;51.428;6.756;2023-02-04T04:57:33;13.90;;;3.70;;
15398;SDS011;7797;51.428;6.756;2023-02-04T05:00:00;12.47;;;3.77;;
15398;SDS011;7797;51.428;6.756;2023-02-04T05:02:27;14.87;;;3.97;;
15398;SDS011;7797;51.428;6.756;2023-02-04T05:04:53;13.10;;;3.60;;
15398;SDS011;7797;51.428;6.756;2023-02-04T05:07:20;11.40;;;3.67;;
15398;SDS011;7797;51.428;6.756;2023-02-04T05:09:47;19.00;;;4.10;;
15398;SDS011;7797;51.428;6.756;2023-02-04T05:12:13;15.70;;;4.07;;
15398;SDS011;7797;51.428;6.756;2023-02-04T05:14:40;14.07;;;4.07;;
15398;SDS011;7797;51.428;6.756;2023-02-04T05:17:07;13.10;;;4.70;;
15398;SDS011;7797;51.428;6.756;2023-02-04T05:19:33;12.27;;;3.87;;
15398;SDS011;7797;51.428;6.756;2023-02-04T05:22:00;20.20;;;4.03;;
15398;SDS011;7797;51.428;6.756;2023-02-04T05:24:27;16.07;;;4.40;;
15398;SDS011;7797;51.428;6.756;2023-02-04T05:26:54;13.53;;;3.53;;
15398;SDS011;7797;51.428;6.756;2023-02-04T05:29:20;15.17;;;3.77;;
15398;SDS011;7797;51.428;6.756;2023-02-04T05:31:47;10.90;;;3.80;;
15398;SDS011;7797;51.428;6.756;2023-02-04T05:34:14;17.70;;;4.43;;
15398;SDS011;7797;51.428;6.756;2023-02-04T05:36:40;9.80;;;3.50;;
15398;SDS011;7797;51.428;6.756;2023-02-04T05:39:07;17.53;;;3.90;;
15398;SDS011;7797;51.428;6.756;2023-02-04T05:41:34;15.20;;;4.00;;
15398;SDS011;7797;51.428;6.756;2023-02-04T05:44:01;15.43;;;4.47;;
15398;SDS011;7797;51.428;6.756;2023-02-04T05:46:28;13.43;;;4.03;;
15398;SDS011;7797;51.428;6.756;2023-02-04T05:48:55;13.77;;;3.87;;
15398;SDS011;7797;51.428;6.756;2023-02-04T05:51:27;17.03;;;4.20;;
15398;SDS011;7797;51.428;6.756;2023-02-04T05:53:54;14.70;;;4.00;;
15398;SDS011;7797;51.428;6.756;2023-02-04T05:56:21;18.43;;;4.33;;
15398;SDS011;7797;51.428;6.756;2023-02-04T05:58:47;15.73;;;3.97;;
15398;SDS011;7797;51.428;6.756;2023-02-04T06:01:14;9.43;;;3.80;;
15398;SDS011;7797;51.428;6.756;2023-02-04T06:03:41;21.90;;;4.20;;
15398;SDS011;7797;51.428;6.756;2023-02-04T06:06:08;17.50;;;4.17;;
15398;SDS011;7797;51.428;6.756;2023-02-04T06:08:34;14.43;;;3.60;;
15398;SDS011;7797;51.428;6.756;2023-02-04T06:11:01;13.97;;;3.83;;
15398;SDS011;7797;51.428;6.756;2023-02-04T06:13:28;13.37;;;3.50;;
15398;SDS011;7797;51.428;6.756;2023-02-04T06:15:54;18.10;;;4.17;;
15398;SDS011;7797;51.428;6.756;2023-02-04T06:18:21;18.53;;;4.10;;
15398;SDS011;7797;51.428;6.756;2023-02-04T06:20:48;16.17;;;3.90;;
15398;SDS011;7797;51.428;6.756;2023-02-04T06:23:14;15.40;;;4.00;;
15398;SDS011;7797;51.428;6.756;2023-02-04T06:25:41;12.27;;;4.13;;
15398;SDS011;7797;51.428;6.756;2023-02-04T06:28:08;14.60;;;3.73;;
15398;SDS011;7797;51.428;6.756;2023-02-04T06:30:35;15.10;;;3.93;;
15398;SDS011;7797;51.428;6.756;2023-02-04T06:33:02;16.53;;;4.10;;
15398;SDS011;7797;51.428;6.756;2023-02-04T06:35:29;16.27;;;3.80;;
15398;SDS011;7797;51.428;6.756;2023-02-04T06:37:56;14.07;;;3.50;;
15398;SDS011;7797;51.428;6.756;2023-02-04T06:40:22;12.70;;;3.47;;
15398;SDS011;7797;51.428;6.756;2023-02-04T06:42:49;13.33;;;3.47;;
15398;SDS011;7797;51.428;6.756;2023-02-04T06:45:16;14.27;;;3.80;;
15398;SDS011;7797;51.428;6.756;2023-02-04T06:47:42;13.20;;;3.90;;
15398;SDS011;7797;51.428;6.756;2023-02-04T06:50:09;16.43;;;3.93;;
15398;SDS011;7797;51.428;6.756;2023-02-04T06:52:37;15.87;;;3.93;;
15398;SDS011;7797;51.428;6.756;2023-02-04T06:55:04;17.17;;;4.50;;
15398;SDS011;7797;51.428;6.756;2023-02-04T06:57:31;14.53;;;4.20;;
15398;SDS011;7797;51.428;6.756;2023-02-04T06:59:57;14.97;;;4.57;;
15398;SDS011;7797;51.428;6.756;2023-02-04T07:02:24;18.87;;;3.97;;
15398;SDS011;7797;51.428;6.756;2023-02-04T07:04:51;22.07;;;4.23;;
15398;SDS011;7797;51.428;6.756;2023-02-04T07:07:18;13.93;;;3.93;;
15398;SDS011;7797;51.428;6.756;2023-02-04T07:09:44;18.50;;;4.40;;
15398;SDS011;7797;51.428;6.756;2023-02-04T07:12:11;16.43;;;4.43;;
15398;SDS011;7797;51.428;6.756;2023-02-04T07:14:41;13.87;;;3.90;;
15398;SDS011;7797;51.428;6.756;2023-02-04T07:17:08;17.43;;;4.83;;
15398;SDS011;7797;51.428;6.756;2023-02-04T07:19:35;19.00;;;4.63;;
15398;SDS011;7797;51.428;6.756;2023-02-04T07:22:02;18.33;;;4.07;;
15398;SDS011;7797;51.428;6.756;2023-02-04T07:24:29;17.50;;;3.87;;
15398;SDS011;7797;51.428;6.756;2023-02-04T07:26:56;19.90;;;4.43;;
15398;SDS011;7797;51.428;6.756;2023-02-04T07:29:23;18.40;;;3.90;;
15398;SDS011;7797;51.428;6.756;2023-02-04T07:31:51;16.50;;;3.97;;
15398;SDS011;7797;51.428;6.756;2023-02-04T07:34:19;14.67;;;3.57;;
15398;SDS011;7797;51.428;6.756;2023-02-04T07:36:46;14.67;;;3.20;;
15398;SDS011;7797;51.428;6.756;2023-02-04T07:39:13;15.43;;;4.03;;
15398;SDS011;7797;51.428;6.756;2023-02-04T07:41:39;15.33;;;3.33;;
15398;SDS011;7797;51.428;6.756;2023-02-04T07:44:06;15.07;;;3.80;;
15398;SDS011;7797;51.428;6.756;2023-02-04T07:46:33;15.43;;;4.13;;
15398;SDS011;7797;51.428;6.756;2023-02-04T07:48:59;18.90;;;4.20;;
15398;SDS011;7797;51.428;6.756;2023-02-04T07:51:26;15.37;;;3.60;;
15398;SDS011;7797;51.428;6.756;2023-02-04T07:53:53;15.30;;;4.07;;
15398;SDS011;7797;51.428;6.756;2023-02-04T07:56:21;14.07;;;4.07;;
15398;SDS011;7797;51.428;6.756;2023-02-04T07:58:48;19.53;;;4.37;;
15398;SDS011;7797;51.428;6.756;2023-02-04T08:01:15;20.53;;;4.07;;
15398;SDS011;7797;51.428;6.756;2023-02-04T08:03:42;19.67;;;4.50;;
15398;SDS011;7797;51.428;6.756;2023-02-04T08:06:09;16.43;;;4.40;;
15398;SDS011;7797;51.428;6.756;2023-02-04T08:08:36;12.73;;;3.97;;
15398;SDS011;7797;51.428;6.756;2023-02-04T08:11:03;18.03;;;4.50;;
15398;SDS011;7797;51.428;6.756;2023-02-04T08:13:29;19.13;;;4.70;;
15398;SDS011;7797;51.428;6.756;2023-02-04T08:15:56;15.90;;;4.37;;
15398;SDS011;7797;51.428;6.756;2023-02-04T08:18:23;16.13;;;4.40;;
15398;SDS011;7797;51.428;6.756;2023-02-04T08:20:52;21.70;;;4.93;;
15398;SDS011;7797;51.428;6.756;2023-02-04T08:23:19;20.90;;;4.93;;
15398;SDS011;7797;51.428;6.756;2023-02-04T08:25:46;16.33;;;4.60;;
15398;SDS011;7797;51.428;6.756;2023-02-04T08:28:13;18.30;;;4.40;;
15398;SDS011;7797;51.428;6.756;2023-02-04T08:30:40;15.50;;;4.93;;
15398;SDS011;7797;51.428;6.756;2023-02-04T08:33:07;14.13;;;4.40;;
15398;SDS011;7797;51.428;6.756;2023-02-04T08:35:35;15.33;;;4.87;;
15398;SDS011;7797;51.428;6.756;2023-02-04T08:38:02;16.43;;;4.60;;
15398;SDS011;7797;51.428;6.756;2023-02-04T08:40:28;18.80;;;4.27;;
15398;SDS011;7797;51.428;6.756;2023-02-04T08:42:56;17.13;;;4.67;;
15398;SDS011;7797;51.428;6.756;2023-02-04T08:45:22;15.63;;;3.80;;
15398;SDS011;7797;51.428;6.756;2023-02-04T08:47:49;17.60;;;4.70;;
15398;SDS011;7797;51.428;6.756;2023-02-04T08:50:16;15.50;;;4.07;;
15398;SDS011;7797;51.428;6.756;2023-02-04T08:52:43;16.87;;;4.77;;
15398;SDS011;7797;51.428;6.756;2023-02-04T08:55:13;14.77;;;4.10;;
15398;SDS011;7797;51.428;6.756;2023-02-04T08:57:41;19.00;;;4.40;;
15398;SDS011;7797;51.428;6.756;2023-02-04T09:00:09;17.33;;;4.70;;
15398;SDS011;7797;51.428;6.756;2023-02-04T09:02:36;18.70;;;5.00;;
15398;SDS011;7797;51.428;6.756;2023-02-04T09:05:03;23.30;;;4.80;;
15398;SDS011;7797;51.428;6.756;2023-02-04T09:07:30;24.23;;;5.33;;
15398;SDS011;7797;51.428;6.756;2023-02-04T09:09:57;17.53;;;5.13;;
15398;SDS011;7797;51.428;6.756;2023-02-04T09:12:24;20.60;;;5.07;;
15398;SDS011;7797;51.428;6.756;2023-02-04T09:14:51;18.93;;;4.90;;
15398;SDS011;7797;51.428;6.756;2023-02-04T09:17:18;16.97;;;5.40;;
15398;SDS011;7797;51.428;6.756;2023-02-04T09:19:45;16.20;;;4.83;;
15398;SDS011;7797;51.428;6.756;2023-02-04T09:22:12;14.27;;;4.93;;
15398;SDS011;7797;51.428;6.756;2023-02-04T09:24:40;20.03;;;5.50;;
15398;SDS011;7797;51.428;6.756;2023-02-04T09:27:07;20.37;;;5.00;;
15398;SDS011;7797;51.428;6.756;2023-02-04T09:29:34;19.90;;;5.03;;
15398;SDS011;7797;51.428;6.756;2023-02-04T09:32:11;21.30;;;5.50;;
15398;SDS011;7797;51.428;6.756;2023-02-04T09:34:45;16.83;;;5.13;;
15398;SDS011;7797;51.428;6.756;2023-02-04T09:37:18;19.50;;;5.37;;
15398;SDS011;7797;51.428;6.756;2023-02-04T09:39:45;20.97;;;5.57;;
15398;SDS011;7797;51.428;6.756;2023-02-04T09:42:12;17.53;;;5.00;;
15398;SDS011;7797;51.428;6.756;2023-02-04T09:44:39;21.80;;;5.50;;
15398;SDS011;7797;51.428;6.756;2023-02-04T09:47:08;24.60;;;5.50;;
15398;SDS011;7797;51.428;6.756;2023-02-04T09:49:36;17.50;;;4.97;;
15398;SDS011;7797;51.428;6.756;2023-02-04T09:52:04;18.37;;;5.10;;
15398;SDS011;7797;51.428;6.756;2023-02-04T09:54:36;20.23;;;5.50;;
15398;SDS011;7797;51.428;6.756;2023-02-04T09:57:09;17.63;;;5.90;;
15398;SDS011;7797;51.428;6.756;2023-02-04T09:59:40;22.30;;;5.63;;
15398;SDS011;7797;51.428;6.756;2023-02-04T10:02:26;26.43;;;5.70;;
15398;SDS011;7797;51.428;6.756;2023-02-04T10:04:54;18.57;;;5.77;;
15398;SDS011;7797;51.428;6.756;2023-02-04T10:07:23;29.30;;;7.00;;
15398;SDS011;7797;51.428;6.756;2023-02-04T10:09:52;23.93;;;6.47;;
15398;SDS011;7797;51.428;6.756;2023-02-04T10:12:19;28.90;;;6.80;;
15398;SDS011;7797;51.428;6.756;2023-02-04T10:14:46;18.93;;;6.00;;
15398;SDS011;7797;51.428;6.756;2023-02-04T10:17:16;25.67;;;6.53;;
15398;SDS011;7797;51.428;6.756;2023-02-04T10:19:45;22.20;;;6.07;;
15398;SDS011;7797;51.428;6.756;2023-02-04T10:22:16;19.20;;;5.90;;
15398;SDS011;7797;51.428;6.756;2023-02-04T10:24:45;28.80;;;6.67;;
15398;SDS011;7797;51.428;6.756;2023-02-04T10:27:12;21.60;;;5.73;;
15398;SDS011;7797;51.428;6.756;2023-02-04T10:29:42;22.33;;;5.33;;
15398;SDS011;7797;51.428;6.756;2023-02-04T10:32:25;19.87;;;5.80;;
15398;SDS011;7797;51.428;6.756;2023-02-04T10:34:57;21.40;;;4.90;;
15398;SDS011;7797;51.428;6.756;2023-02-04T10:37:25;23.40;;;5.87;;
15398;SDS011;7797;51.428;6.756;2023-02-04T10:39:52;17.57;;;5.07;;
15398;SDS011;7797;51.428;6.756;2023-02-04T10:42:20;19.50;;;5.17;;
15398;SDS011;7797;51.428;6.756;2023-02-04T10:44:49;19.97;;;6.07;;
15398;SDS011;7797;51.428;6.756;2023-02-04T10:47:17;21.10;;;6.80;;
15398;SDS011;7797;51.428;6.756;2023-02-04T10:49:59;21.83;;;6.00;;
15398;SDS011;7797;51.428;6.756;2023-02-04T10:52:37;25.67;;;8.00;;
15398;SDS011;7797;51.428;6.756;2023-02-04T10:55:06;25.97;;;8.20;;
15398;SDS011;7797;51.428;6.756;2023-02-04T10:57:37;22.60;;;6.70;;
15398;SDS011;7797;51.428;6.756;2023-02-04T11:00:06;23.50;;;6.93;;
15398;SDS011;7797;51.428;6.756;2023-02-04T11:02:47;24.63;;;7.53;;
15398;SDS011;7797;51.428;6.756;2023-02-04T11:05:16;25.83;;;8.90;;
15398;SDS011;7797;51.428;6.756;2023-02-04T11:07:46;24.60;;;9.63;;
15398;SDS011;7797;51.428;6.756;2023-02-04T11:10:20;21.43;;;6.93;;
15398;SDS011;7797;51.428;6.756;2023-02-04T11:20:49;22.27;;;8.93;;
15398;SDS011;7797;51.428;6.756;2023-02-04T11:33:48;26.97;;;10.00;;
15398;SDS011;7797;51.428;6.756;2023-02-04T11:36:16;25.33;;;10.40;;
15398;SDS011;7797;51.428;6.756;2023-02-04T11:38:44;25.03;;;9.60;;
15398;SDS011;7797;51.428;6.756;2023-02-04T11:41:26;25.60;;;11.23;;
15398;SDS011;7797;51.428;6.756;2023-02-04T11:43:54;25.13;;;11.43;;
15398;SDS011;7797;51.428;6.756;2023-02-04T11:46:27;28.07;;;11.27;;
15398;SDS011;7797;51.428;6.756;2023-02-04T11:48:56;24.07;;;10.40;;
15398;SDS011;7797;51.428;6.756;2023-02-04T11:51:42;25.23;;;10.60;;
15398;SDS011;7797;51.428;6.756;2023-02-04T11:54:11;24.33;;;9.83;;
15398;SDS011;7797;51.428;6.756;2023-02-04T11:56:39;20.27;;;9.67;;
15398;SDS011;7797;51.428;6.756;2023-02-04T11:59:07;30.47;;;11.33;;
15398;SDS011;7797;51.428;6.756;2023-02-04T12:01:34;25.77;;;9.77;;
15398;SDS011;7797;51.428;6.756;2023-02-04T12:04:02;24.00;;;9.03;;
15398;SDS011;7797;51.428;6.756;2023-02-04T12:06:34;24.37;;;8.80;;
15398;SDS011;7797;51.428;6.756;2023-02-04T12:09:05;26.80;;;7.97;;
15398;SDS011;7797;51.428;6.756;2023-02-04T12:11:54;27.00;;;7.70;;
15398;SDS011;7797;51.428;6.756;2023-02-04T12:14:27;25.63;;;7.63;;
15398;SDS011;7797;51.428;6.756;2023-02-04T12:16:58;24.50;;;6.50;;
15398;SDS011;7797;51.428;6.756;2023-02-04T12:19:25;23.87;;;7.07;;
15398;SDS011;7797;51.428;6.756;2023-02-04T12:21:52;20.17;;;6.83;;
15398;SDS011;7797;51.428;6.756;2023-02-04T12:24:20;18.33;;;5.80;;
15398;SDS011;7797;51.428;6.756;2023-02-04T12:26:47;20.70;;;6.10;;
15398;SDS011;7797;51.428;6.756;2023-02-04T12:29:14;17.13;;;5.63;;
15398;SDS011;7797;51.428;6.756;2023-02-04T12:31:42;26.10;;;6.97;;
15398;SDS011;7797;51.428;6.756;2023-02-04T12:34:09;23.70;;;6.50;;
15398;SDS011;7797;51.428;6.756;2023-02-04T12:36:36;18.07;;;5.70;;
15398;SDS011;7797;51.428;6.756;2023-02-04T12:39:07;16.20;;;6.30;;
15398;SDS011;7797;51.428;6.756;2023-02-04T12:41:35;17.80;;;6.07;;
15398;SDS011;7797;51.428;6.756;2023-02-04T12:44:17;19.80;;;6.20;;
15398;SDS011;7797;51.428;6.756;2023-02-04T12:46:44;23.60;;;6.27;;
15398;SDS011;7797;51.428;6.756;2023-02-04T12:49:25;20.33;;;6.27;;
15398;SDS011;7797;51.428;6.756;2023-02-04T12:52:06;22.67;;;6.70;;
15398;SDS011;7797;51.428;6.756;2023-02-04T12:54:39;19.77;;;6.07;;
15398;SDS011;7797;51.428;6.756;2023-02-04T12:57:06;20.23;;;6.53;;
15398;SDS011;7797;51.428;6.756;2023-02-04T12:59:33;22.33;;;6.07;;
15398;SDS011;7797;51.428;6.756;2023-02-04T13:02:00;16.57;;;5.17;;
15398;SDS011;7797;51.428;6.756;2023-02-04T13:04:27;17.63;;;5.73;;
15398;SDS011;7797;51.428;6.756;2023-02-04T13:06:56;17.27;;;5.53;;
15398;SDS011;7797;51.428;6.756;2023-02-04T13:09:28;20.43;;;5.90;;
15398;SDS011;7797;51.428;6.756;2023-02-04T13:11:55;18.70;;;5.57;;
15398;SDS011;7797;51.428;6.756;2023-02-04T13:14:22;20.77;;;5.83;;
15398;SDS011;7797;51.428;6.756;2023-02-04T13:16:49;17.60;;;5.53;;
15398;SDS011;7797;51.428;6.756;2023-02-04T13:19:16;16.33;;;4.90;;
15398;SDS011;7797;51.428;6.756;2023-02-04T13:21:42;22.80;;;4.83;;
15398;SDS011;7797;51.428;6.756;2023-02-04T13:24:09;16.00;;;4.10;;
15398;SDS011;7797;51.428;6.756;2023-02-04T13:26:36;16.23;;;4.57;;
15398;SDS011;7797;51.428;6.756;2023-02-04T13:29:03;16.30;;;4.37;;
15398;SDS011;7797;51.428;6.756;2023-02-04T13:31:29;14.53;;;4.07;;
15398;SDS011;7797;51.428;6.756;2023-02-04T13:33:56;19.10;;;4.03;;
15398;SDS011;7797;51.428;6.756;2023-02-04T13:36:23;13.27;;;4.33;;
15398;SDS011;7797;51.428;6.756;2023-02-04T13:38:53;15.57;;;4.33;;
15398;SDS011;7797;51.428;6.756;2023-02-04T13:41:19;20.60;;;4.53;;
15398;SDS011;7797;51.428;6.756;2023-02-04T13:43:47;12.70;;;3.83;;
15398;SDS011;7797;51.428;6.756;2023-02-04T13:46:13;16.30;;;3.93;;
15398;SDS011;7797;51.428;6.756;2023-02-04T13:48:45;19.70;;;4.30;;
15398;SDS011;7797;51.428;6.756;2023-02-04T13:51:13;13.70;;;3.83;;
15398;SDS011;7797;51.428;6.756;2023-02-04T13:53:39;18.80;;;3.63;;
15398;SDS011;7797;51.428;6.756;2023-02-04T13:56:06;11.10;;;3.53;;
15398;SDS011;7797;51.428;6.756;2023-02-04T13:58:33;17.90;;;3.57;;
15398;SDS011;7797;51.428;6.756;2023-02-04T14:01:00;18.07;;;4.27;;
15398;SDS011;7797;51.428;6.756;2023-02-04T14:03:27;11.33;;;3.17;;
15398;SDS011;7797;51.428;6.756;2023-02-04T14:05:55;10.83;;;3.47;;
15398;SDS011;7797;51.428;6.756;2023-02-04T14:08:22;12.60;;;4.20;;
15398;SDS011;7797;51.428;6.756;2023-02-04T14:10:49;14.87;;;3.20;;
15398;SDS011;7797;51.428;6.756;2023-02-04T14:13:16;13.43;;;3.40;;
15398;SDS011;7797;51.428;6.756;2023-02-04T14:15:42;15.10;;;4.20;;
15398;SDS011;7797;51.428;6.756;2023-02-04T14:18:09;16.60;;;3.17;;
15398;SDS011;7797;51.428;6.756;2023-02-04T14:20:36;13.57;;;3.80;;
15398;SDS011;7797;51.428;6.756;2023-02-04T14:23:04;14.13;;;3.30;;
15398;SDS011;7797;51.428;6.756;2023-02-04T14:25:30;13.47;;;3.90;;
15398;SDS011;7797;51.428;6.756;2023-02-04T14:27:57;15.57;;;3.70;;
15398;SDS011;7797;51.428;6.756;2023-02-04T14:30:26;13.30;;;3.43;;
15398;SDS011;7797;51.428;6.756;2023-02-04T14:32:54;16.40;;;3.97;;
15398;SDS011;7797;51.428;6.756;2023-02-04T14:35:23;17.47;;;3.90;;
15398;SDS011;7797;51.428;6.756;2023-02-04T14:37:51;15.87;;;3.87;;
15398;SDS011;7797;51.428;6.756;2023-02-04T14:40:27;9.40;;;3.80;;
15398;SDS011;7797;51.428;6.756;2023-02-04T14:43:00;11.80;;;3.13;;
15398;SDS011;7797;51.428;6.756;2023-02-04T14:45:30;18.10;;;4.10;;
15398;SDS011;7797;51.428;6.756;2023-02-04T14:47:57;9.70;;;3.70;;
15398;SDS011;7797;51.428;6.756;2023-02-04T14:50:30;15.60;;;3.60;;
15398;SDS011;7797;51.428;6.756;2023-02-04T14:52:58;12.93;;;3.70;;
15398;SDS011;7797;51.428;6.756;2023-02-04T14:55:25;14.57;;;3.93;;
15398;SDS011;7797;51.428;6.756;2023-02-04T14:57:52;13.57;;;3.73;;
15398;SDS011;7797;51.428;6.756;2023-02-04T15:00:20;13.07;;;3.47;;
15398;SDS011;7797;51.428;6.756;2023-02-04T15:02:48;13.63;;;3.70;;
15398;SDS011;7797;51.428;6.756;2023-02-04T15:05:17;17.60;;;4.33;;
15398;SDS011;7797;51.428;6.756;2023-02-04T15:07:46;11.37;;;3.87;;
15398;SDS011;7797;51.428;6.756;2023-02-04T15:10:18;15.27;;;4.60;;